createdAt,value
2019-05-06T00:00:26.874Z,1.50
2019-05-06T00:02:56.316Z,1.40
2019-05-06T00:05:25.861Z,1.50
2019-05-06T00:07:55.366Z,1.40
2019-05-06T00:10:30.084Z,1.40
2019-05-06T00:12:59.657Z,1.30
2019-05-06T00:15:29.357Z,1.30
2019-05-06T00:17:58.869Z,1.40
2019-05-06T00:20:28.412Z,1.50
2019-05-06T00:22:59.486Z,1.40
2019-05-06T00:25:47.232Z,1.30
2019-05-06T00:28:19.942Z,1.10
2019-05-06T00:30:51.054Z,1.10
2019-05-06T00:33:20.489Z,1.30
2019-05-06T00:35:49.953Z,1.40
2019-05-06T00:38:19.392Z,1.30
2019-05-06T00:40:54.369Z,1.20
2019-05-06T00:43:23.952Z,1.20
2019-05-06T00:45:53.956Z,1.20
2019-05-06T00:48:24.418Z,1.10
2019-05-06T00:50:54.075Z,1.10
2019-05-06T00:53:25.153Z,1.30
2019-05-06T00:55:54.633Z,1.60
2019-05-06T00:58:24.073Z,1.80
2019-05-06T01:00:53.956Z,1.90
2019-05-06T01:03:24.038Z,2.10
2019-05-06T01:05:54.395Z,2.40
2019-05-06T01:08:24.196Z,2.70
2019-05-06T01:10:54.516Z,2.90
2019-05-06T01:13:28.341Z,3.10
2019-05-06T01:15:57.785Z,3.30
2019-05-06T01:18:27.245Z,3.40
2019-05-06T01:21:11.760Z,3.30
2019-05-06T01:23:43.925Z,3.30
2019-05-06T01:26:15.384Z,3.40
2019-05-06T01:28:45.741Z,3.60
2019-05-06T01:31:15.249Z,3.70
2019-05-06T01:33:45.267Z,3.70
2019-05-06T01:36:14.956Z,3.80
2019-05-06T01:38:55.011Z,3.90
2019-05-06T01:41:26.145Z,4.00
2019-05-06T01:43:55.591Z,4.10
2019-05-06T01:46:25.037Z,4.10
2019-05-06T01:48:54.505Z,4.10
2019-05-06T01:51:24.285Z,4.10
2019-05-06T01:53:54.388Z,4.10
2019-05-06T01:56:24.314Z,4.00
2019-05-06T01:58:54.233Z,4.00
2019-05-06T02:01:25.114Z,4.00
2019-05-06T02:03:54.747Z,4.00
2019-05-06T02:06:24.934Z,4.00
2019-05-06T02:08:54.590Z,4.00
2019-05-06T02:11:24.254Z,4.10
2019-05-06T02:13:53.929Z,4.10
2019-05-06T02:16:24.377Z,4.10
2019-05-06T02:18:54.107Z,4.20
2019-05-06T02:21:31.236Z,4.20
2019-05-06T02:24:04.138Z,4.10
2019-05-06T02:26:34.346Z,4.10
2019-05-06T02:29:11.957Z,4.10
2019-05-06T02:31:48.944Z,4.10
2019-05-06T02:34:28.311Z,4.20
2019-05-06T02:37:08.232Z,4.20
2019-05-06T02:39:37.691Z,4.20
2019-05-06T02:42:08.087Z,4.30
2019-05-06T02:44:37.608Z,4.40
2019-05-06T02:47:14.399Z,4.40
2019-05-06T02:49:53.466Z,4.50
2019-05-06T02:52:23.055Z,4.50
2019-05-06T02:54:53.718Z,4.50
2019-05-06T02:57:24.428Z,4.50
2019-05-06T02:59:55.326Z,4.50
2019-05-06T03:02:38.100Z,4.60
2019-05-06T03:04:56.061Z,4.50
2019-05-06T03:07:25.478Z,4.50
2019-05-06T03:09:54.937Z,4.50
2019-05-06T03:12:24.377Z,4.50
2019-05-06T03:14:53.845Z,4.50
2019-05-06T03:17:23.736Z,4.50
2019-05-06T03:19:54.894Z,4.60
2019-05-06T03:22:27.851Z,4.60
2019-05-06T03:24:58.686Z,4.60
2019-05-06T03:27:28.130Z,4.60
2019-05-06T03:29:57.597Z,4.60
2019-05-06T03:32:30.740Z,4.60
2019-05-06T03:35:19.097Z,4.60
2019-05-06T03:37:29.189Z,4.70
2019-05-06T03:39:58.651Z,4.70
2019-05-06T03:42:28.089Z,4.60
2019-05-06T03:44:59.203Z,4.60
2019-05-06T03:47:39.293Z,4.60
2019-05-06T03:50:08.947Z,4.70
2019-05-06T03:52:38.438Z,4.60
2019-05-06T03:55:07.970Z,4.60
2019-05-06T03:57:38.349Z,4.60
2019-05-06T04:00:12.969Z,4.60
2019-05-06T04:02:43.487Z,4.70
2019-05-06T04:05:13.668Z,4.70
2019-05-06T04:07:45.979Z,4.70
2019-05-06T04:10:15.422Z,4.70
2019-05-06T04:12:45.076Z,4.70
2019-05-06T04:15:15.169Z,4.70
2019-05-06T04:17:53.957Z,4.70
2019-05-06T04:20:30.454Z,4.80
2019-05-06T04:23:06.033Z,4.80
2019-05-06T04:25:43.680Z,4.80
2019-05-06T04:28:17.857Z,4.90
2019-05-06T04:30:47.330Z,4.90
2019-05-06T04:33:17.588Z,4.90
2019-05-06T04:35:47.439Z,4.90
2019-05-06T04:38:16.879Z,4.90
2019-05-06T04:40:46.509Z,4.90
2019-05-06T04:43:15.951Z,4.90
2019-05-06T04:45:45.402Z,4.90
2019-05-06T04:48:14.908Z,4.90
2019-05-06T04:50:45.522Z,4.90
2019-05-06T04:53:15.023Z,4.90
2019-05-06T04:55:44.489Z,4.80
2019-05-06T04:58:14.001Z,4.90
2019-05-06T05:00:44.534Z,4.90
2019-05-06T05:03:14.413Z,5.00
2019-05-06T05:05:44.878Z,5.10
2019-05-06T05:08:14.777Z,5.10
2019-05-06T05:10:45.880Z,5.10
2019-05-06T05:13:23.229Z,5.20
2019-05-06T05:16:03.523Z,5.20
2019-05-06T05:18:42.375Z,5.20
2019-05-06T05:21:11.941Z,5.20
2019-05-06T05:23:42.894Z,5.30
2019-05-06T05:26:12.473Z,5.30
2019-05-06T05:28:42.930Z,5.50
2019-05-06T05:31:12.532Z,5.50
2019-05-06T05:33:42.408Z,5.60
2019-05-06T05:36:12.481Z,5.70
2019-05-06T05:38:43.270Z,5.60
2019-05-06T05:41:12.802Z,5.70
2019-05-06T05:43:44.629Z,5.70
2019-05-06T05:46:14.224Z,5.70
2019-05-06T05:49:03.800Z,5.70
2019-05-06T05:51:33.334Z,5.90
2019-05-06T05:54:02.781Z,5.90
2019-05-06T05:56:32.941Z,6.00
2019-05-06T05:59:03.317Z,6.00
2019-05-06T06:01:32.959Z,6.20
2019-05-06T06:04:03.521Z,6.10
2019-05-06T06:06:33.280Z,6.30
2019-05-06T06:09:05.812Z,6.20
2019-05-06T06:11:44.293Z,6.40
2019-05-06T06:14:33.822Z,6.50
2019-05-06T06:17:16.778Z,6.60
2019-05-06T06:20:00.017Z,6.70
2019-05-06T06:22:32.927Z,6.60
2019-05-06T06:25:04.070Z,6.60
2019-05-06T06:27:34.421Z,6.70
2019-05-06T06:30:06.369Z,6.80
2019-05-06T06:32:35.842Z,6.90
2019-05-06T06:35:14.309Z,6.80
2019-05-06T06:37:43.624Z,6.90
2019-05-06T06:40:15.241Z,7.00
2019-05-06T06:42:46.346Z,7.20
2019-05-06T06:45:15.848Z,7.20
2019-05-06T06:47:45.309Z,7.40
2019-05-06T06:50:14.822Z,7.70
2019-05-06T06:52:44.649Z,7.70
2019-05-06T06:55:14.232Z,7.50
2019-05-06T06:57:46.543Z,7.60
2019-05-06T07:00:17.758Z,7.60
2019-05-06T07:02:49.107Z,7.80
2019-05-06T07:05:25.459Z,8.10
2019-05-06T07:07:53.108Z,7.90
2019-05-06T07:10:40.363Z,8.00
2019-05-06T07:13:12.022Z,8.00
2019-05-06T07:15:42.604Z,8.00
2019-05-06T07:18:13.380Z,7.80
2019-05-06T07:20:47.849Z,7.90
2019-05-06T07:23:23.381Z,7.80
2019-05-06T07:25:53.774Z,8.00
2019-05-06T07:28:24.221Z,8.10
2019-05-06T07:30:54.603Z,8.20
2019-05-06T07:33:24.061Z,8.20
2019-05-06T07:35:53.496Z,8.40
2019-05-06T07:38:23.569Z,8.70
2019-05-06T07:41:04.824Z,8.90
2019-05-06T07:43:42.138Z,8.80
2019-05-06T07:46:28.640Z,8.70
2019-05-06T07:48:58.081Z,8.40
2019-05-06T07:51:27.546Z,8.40
2019-05-06T07:53:57.320Z,8.50
2019-05-06T07:56:26.884Z,8.30
2019-05-06T07:59:08.487Z,8.90
2019-05-06T08:01:39.515Z,8.70
2019-05-06T08:04:09.490Z,8.60
2019-05-06T08:06:39.348Z,8.80
2019-05-06T08:09:12.725Z,9.00
2019-05-06T08:11:42.234Z,9.20
2019-05-06T08:14:13.015Z,9.10
2019-05-06T08:16:50.335Z,9.10
2019-05-06T08:19:19.768Z,9.40
2019-05-06T08:21:52.108Z,9.00
2019-05-06T08:24:22.732Z,9.10
2019-05-06T08:26:53.441Z,9.20
2019-05-06T08:29:22.953Z,9.60
2019-05-06T08:31:52.738Z,9.70
2019-05-06T08:34:23.118Z,9.50
2019-05-06T08:36:56.927Z,9.40
2019-05-06T08:39:26.865Z,9.50
2019-05-06T08:41:56.299Z,9.30
2019-05-06T08:44:25.753Z,8.80
2019-05-06T08:46:55.197Z,8.90
2019-05-06T08:49:24.678Z,8.80
2019-05-06T08:51:58.806Z,8.80
2019-05-06T08:54:35.940Z,9.10
2019-05-06T08:57:05.393Z,9.20
2019-05-06T08:59:34.846Z,9.20
2019-05-06T09:02:05.138Z,9.80
2019-05-06T09:04:34.608Z,10.10
2019-05-06T09:07:04.113Z,10.20
2019-05-06T09:09:33.577Z,10.40
2019-05-06T09:12:03.084Z,10.10
2019-05-06T09:14:32.843Z,10.10
2019-05-06T09:17:02.806Z,10.20
2019-05-06T09:19:33.146Z,10.30
2019-05-06T09:22:03.233Z,10.40
2019-05-06T09:24:32.701Z,10.90
2019-05-06T09:27:03.800Z,10.60
2019-05-06T09:29:37.551Z,10.80
2019-05-06T09:32:13.763Z,10.80
2019-05-06T09:34:52.416Z,11.30
2019-05-06T09:37:23.528Z,11.00
2019-05-06T09:39:53.504Z,11.60
2019-05-06T09:42:23.323Z,11.60
2019-05-06T09:44:54.150Z,10.60
2019-05-06T09:47:25.529Z,10.50
2019-05-06T09:49:54.991Z,10.60
2019-05-06T09:52:24.441Z,11.00
2019-05-06T09:55:04.576Z,10.50
2019-05-06T09:57:52.201Z,10.60
2019-05-06T10:00:23.513Z,10.50
2019-05-06T10:02:53.808Z,10.80
2019-05-06T10:05:23.258Z,11.60
2019-05-06T10:07:52.841Z,11.30
2019-05-06T10:10:22.448Z,11.70
2019-05-06T10:12:53.027Z,11.90
2019-05-06T10:15:24.324Z,11.00
2019-05-06T10:17:55.642Z,10.90
2019-05-06T10:20:25.113Z,12.00
2019-05-06T10:22:54.556Z,11.80
2019-05-06T10:25:24.017Z,11.30
2019-05-06T10:27:57.264Z,11.80
2019-05-06T10:30:26.187Z,11.50
2019-05-06T10:32:57.341Z,11.60
2019-05-06T10:35:29.591Z,11.40
2019-05-06T10:38:19.217Z,12.20
2019-05-06T10:41:04.047Z,12.80
2019-05-06T10:43:52.742Z,12.20
2019-05-06T10:46:22.594Z,11.20
2019-05-06T10:48:53.210Z,10.60
2019-05-06T10:51:27.013Z,10.40
2019-05-06T10:53:56.498Z,10.50
2019-05-06T10:56:27.562Z,10.30
2019-05-06T10:59:02.803Z,10.60
2019-05-06T11:01:45.840Z,11.00
2019-05-06T11:04:15.297Z,11.30
2019-05-06T11:06:44.750Z,11.40
2019-05-06T11:09:14.285Z,11.40
2019-05-06T11:11:43.727Z,11.30
2019-05-06T11:14:13.206Z,11.90
2019-05-06T11:16:43.722Z,13.30
2019-05-06T11:19:13.431Z,13.60
2019-05-06T11:21:45.088Z,13.90
2019-05-06T11:24:14.049Z,13.20
2019-05-06T11:26:43.499Z,12.50
2019-05-06T11:29:14.614Z,12.10
2019-05-06T11:31:45.698Z,12.40
2019-05-06T11:34:33.236Z,12.70
2019-05-06T11:37:05.378Z,12.80
2019-05-06T11:39:34.841Z,12.80
2019-05-06T11:42:23.850Z,12.70
2019-05-06T11:44:35.371Z,11.90
2019-05-06T11:47:04.817Z,12.20
2019-05-06T11:49:34.277Z,12.50
2019-05-06T11:52:03.930Z,12.70
2019-05-06T11:54:34.461Z,12.30
2019-05-06T11:57:05.668Z,12.40
2019-05-06T11:59:35.140Z,12.30
2019-05-06T12:02:06.222Z,12.20
2019-05-06T12:04:35.704Z,12.00
2019-05-06T12:07:11.086Z,12.30
2019-05-06T12:09:36.234Z,12.60
2019-05-06T12:12:05.736Z,12.10
2019-05-06T12:14:35.205Z,12.10
2019-05-06T12:17:04.717Z,12.00
2019-05-06T12:19:34.185Z,12.20
2019-05-06T12:22:03.638Z,12.00
2019-05-06T12:24:33.177Z,11.90
2019-05-06T12:27:03.319Z,11.80
2019-05-06T12:29:32.904Z,11.80
2019-05-06T12:32:04.011Z,11.70
2019-05-06T12:34:33.494Z,11.50
2019-05-06T12:37:04.593Z,11.50
2019-05-06T12:39:34.096Z,11.50
2019-05-06T12:42:05.198Z,11.50
2019-05-06T12:44:36.281Z,11.60
2019-05-06T12:47:14.161Z,11.90
2019-05-06T12:49:43.600Z,11.90
2019-05-06T12:52:13.052Z,11.70
2019-05-06T12:54:43.149Z,12.20
2019-05-06T12:57:12.770Z,12.70
2019-05-06T12:59:42.697Z,12.70
2019-05-06T13:02:13.287Z,12.30
2019-05-06T13:04:54.500Z,12.40
2019-05-06T13:07:15.730Z,12.70
2019-05-06T13:09:45.545Z,12.70
2019-05-06T13:12:16.722Z,12.80
2019-05-06T13:14:46.161Z,13.00
2019-05-06T13:17:17.261Z,13.30
2019-05-06T13:19:46.702Z,13.30
2019-05-06T13:22:17.813Z,13.00
2019-05-06T13:24:47.240Z,13.00
2019-05-06T13:27:18.346Z,12.70
2019-05-06T13:29:47.854Z,12.40
2019-05-06T13:32:18.961Z,12.20
2019-05-06T13:34:48.400Z,12.10
2019-05-06T13:37:17.947Z,12.00
2019-05-06T13:39:47.441Z,12.10
2019-05-06T13:42:18.506Z,12.20
2019-05-06T13:44:49.091Z,12.40
2019-05-06T13:47:22.817Z,12.50
2019-05-06T13:49:52.898Z,12.80
2019-05-06T13:52:23.230Z,13.10
2019-05-06T13:54:53.664Z,13.00
2019-05-06T13:57:23.117Z,13.10
2019-05-06T13:59:53.399Z,12.90
2019-05-06T14:02:24.565Z,12.90
2019-05-06T14:04:54.005Z,12.80
2019-05-06T14:07:24.209Z,12.50
2019-05-06T14:09:54.125Z,12.20
2019-05-06T14:12:23.581Z,12.00
2019-05-06T14:14:53.026Z,11.70
2019-05-06T14:17:22.617Z,11.50
2019-05-06T14:19:53.452Z,11.50
2019-05-06T14:22:23.418Z,11.30
2019-05-06T14:24:55.549Z,11.40
2019-05-06T14:27:25.010Z,11.30
2019-05-06T14:29:59.141Z,11.50
2019-05-06T14:32:28.678Z,11.80
2019-05-06T14:34:58.267Z,12.10
2019-05-06T14:37:27.898Z,12.10
2019-05-06T14:39:59.760Z,11.80
2019-05-06T14:42:29.427Z,11.60
2019-05-06T14:44:58.873Z,11.50
2019-05-06T14:47:30.006Z,11.20
2019-05-06T14:49:59.521Z,10.80
2019-05-06T14:52:29.062Z,10.70
2019-05-06T14:55:00.147Z,10.60
2019-05-06T14:57:32.136Z,10.60
2019-05-06T15:00:00.762Z,10.70
2019-05-06T15:02:33.771Z,10.70
2019-05-06T15:05:02.964Z,10.80
2019-05-06T15:07:33.037Z,11.00
2019-05-06T15:10:19.023Z,11.30
2019-05-06T15:12:35.004Z,11.50
2019-05-06T15:15:06.791Z,11.80
2019-05-06T15:17:36.898Z,12.00
2019-05-06T15:20:06.733Z,12.10
2019-05-06T15:22:36.204Z,12.10
2019-05-06T15:25:07.193Z,11.90
2019-05-06T15:27:36.662Z,11.80
2019-05-06T15:30:09.385Z,11.80
2019-05-06T15:32:39.422Z,11.70
2019-05-06T15:35:12.678Z,11.60
2019-05-06T15:37:43.473Z,11.30
2019-05-06T15:40:13.150Z,11.10
2019-05-06T15:42:42.698Z,10.90
2019-05-06T15:45:12.690Z,10.90
2019-05-06T15:47:42.757Z,10.20
2019-05-06T15:50:13.341Z,9.50
2019-05-06T15:52:43.687Z,9.10
2019-05-06T15:55:14.473Z,8.80
2019-05-06T15:57:44.001Z,8.50
2019-05-06T16:00:17.224Z,8.30
2019-05-06T16:02:46.680Z,8.20
2019-05-06T16:05:20.193Z,8.30
2019-05-06T16:07:47.597Z,8.40
2019-05-06T16:10:18.038Z,8.50
2019-05-06T16:12:48.420Z,8.40
2019-05-06T16:15:18.676Z,8.30
2019-05-06T16:17:48.141Z,8.10
2019-05-06T16:20:17.657Z,8.20
2019-05-06T16:22:48.830Z,8.30
2019-05-06T16:25:18.304Z,8.50
2019-05-06T16:27:52.140Z,8.60
2019-05-06T16:30:24.076Z,8.60
2019-05-06T16:32:52.708Z,8.60
2019-05-06T16:35:22.835Z,8.40
2019-05-06T16:37:52.602Z,8.30
2019-05-06T16:40:23.117Z,8.10
2019-05-06T16:42:54.466Z,8.00
2019-05-06T16:45:23.973Z,7.70
2019-05-06T16:47:53.497Z,7.30
2019-05-06T16:50:25.117Z,7.00
2019-05-06T16:52:54.660Z,6.90
2019-05-06T16:55:27.207Z,6.90
2019-05-06T16:58:02.447Z,6.90
2019-05-06T17:00:34.769Z,6.80
2019-05-06T17:03:14.765Z,6.90
2019-05-06T17:06:02.325Z,7.00
2019-05-06T17:08:33.350Z,7.10
2019-05-06T17:11:04.903Z,7.20
2019-05-06T17:13:37.435Z,7.30
2019-05-06T17:16:05.174Z,7.30
2019-05-06T17:18:34.660Z,7.30
2019-05-06T17:21:04.268Z,7.30
2019-05-06T17:23:33.737Z,7.30
2019-05-06T17:26:03.204Z,7.20
2019-05-06T17:28:34.293Z,7.20
2019-05-06T17:31:18.628Z,7.20
2019-05-06T17:33:51.774Z,7.20
2019-05-06T17:36:25.563Z,7.20
2019-05-06T17:38:56.293Z,7.20
2019-05-06T17:41:30.702Z,7.20
2019-05-06T17:43:56.895Z,7.20
2019-05-06T17:46:32.903Z,7.20
2019-05-06T17:49:09.819Z,7.20
2019-05-06T17:51:57.320Z,7.10
2019-05-06T17:54:26.777Z,6.60
2019-05-06T17:56:56.463Z,6.20
2019-05-06T17:59:25.954Z,6.00
2019-05-06T18:01:59.766Z,5.90
2019-05-06T18:04:29.364Z,5.80
2019-05-06T18:06:59.091Z,5.90
2019-05-06T18:09:28.915Z,6.00
2019-05-06T18:11:59.555Z,6.10
2019-05-06T18:14:35.050Z,6.10
2019-05-06T18:17:04.637Z,6.20
2019-05-06T18:19:34.107Z,6.30
2019-05-06T18:22:03.541Z,6.30
2019-05-06T18:24:33.379Z,6.30
2019-05-06T18:27:03.432Z,6.30
2019-05-06T18:29:33.551Z,6.30
2019-05-06T18:32:03.873Z,6.30
2019-05-06T18:34:33.506Z,6.40
2019-05-06T18:37:03.369Z,6.40
2019-05-06T18:39:34.137Z,6.60
2019-05-06T18:42:15.987Z,6.60
2019-05-06T18:44:34.756Z,6.60
2019-05-06T18:47:04.226Z,6.50
2019-05-06T18:49:34.059Z,6.50
2019-05-06T18:52:03.549Z,6.50
2019-05-06T18:54:33.987Z,6.40
2019-05-06T18:57:05.019Z,6.30
2019-05-06T18:59:36.807Z,6.30
2019-05-06T19:02:05.693Z,6.30
2019-05-06T19:04:45.923Z,6.30
2019-05-06T19:07:17.136Z,6.30
2019-05-06T19:09:48.115Z,6.30
2019-05-06T19:12:30.292Z,6.20
2019-05-06T19:14:48.671Z,6.30
2019-05-06T19:17:18.116Z,6.30
2019-05-06T19:19:47.565Z,6.30
2019-05-06T19:22:17.035Z,6.20
2019-05-06T19:24:46.551Z,6.20
2019-05-06T19:27:16.019Z,6.20
2019-05-06T19:29:45.465Z,6.20
2019-05-06T19:32:14.939Z,6.20
2019-05-06T19:34:44.382Z,6.20
2019-05-06T19:37:14.921Z,6.20
2019-05-06T19:39:44.380Z,6.20
2019-05-06T19:42:13.841Z,6.30
2019-05-06T19:44:45.503Z,6.30
2019-05-06T19:47:14.388Z,6.30
2019-05-06T19:49:44.898Z,6.40
2019-05-06T19:52:14.361Z,6.40
2019-05-06T19:54:46.899Z,6.40
2019-05-06T19:57:16.373Z,6.40
2019-05-06T19:59:46.784Z,6.40
2019-05-06T20:02:16.248Z,6.40
2019-05-06T20:04:47.400Z,6.40
2019-05-06T20:07:36.525Z,6.50
2019-05-06T20:10:16.706Z,6.40
2019-05-06T20:13:01.115Z,6.40
2019-05-06T20:15:38.544Z,6.40
2019-05-06T20:18:09.121Z,6.40
2019-05-06T20:20:38.729Z,6.40
2019-05-06T20:23:08.177Z,6.40
2019-05-06T20:25:37.641Z,6.40
2019-05-06T20:28:08.198Z,6.50
2019-05-06T20:30:37.656Z,6.40
2019-05-06T20:33:07.190Z,6.40
2019-05-06T20:35:36.639Z,6.40
2019-05-06T20:38:06.101Z,6.40
2019-05-06T20:40:38.118Z,6.40
2019-05-06T20:43:16.503Z,6.40
2019-05-06T20:45:37.878Z,6.40
2019-05-06T20:48:07.346Z,6.40
2019-05-06T20:50:36.792Z,6.40
2019-05-06T20:53:06.261Z,6.40
2019-05-06T20:55:35.934Z,6.40
2019-05-06T20:58:06.538Z,6.30
2019-05-06T21:00:36.064Z,6.40
2019-05-06T21:03:05.529Z,6.40
2019-05-06T21:05:34.982Z,6.30
2019-05-06T21:08:04.521Z,6.30
2019-05-06T21:10:33.966Z,6.30
2019-05-06T21:13:03.429Z,6.30
2019-05-06T21:15:32.877Z,6.30
2019-05-06T21:18:04.443Z,6.30
2019-05-06T21:20:33.474Z,6.20
2019-05-06T21:23:02.938Z,6.20
2019-05-06T21:25:32.386Z,6.20
2019-05-06T21:28:02.793Z,6.20
2019-05-06T21:30:32.615Z,6.20
2019-05-06T21:33:02.065Z,6.20
2019-05-06T21:35:33.151Z,6.20
2019-05-06T21:38:02.798Z,6.20
2019-05-06T21:40:32.469Z,6.10
2019-05-06T21:43:02.288Z,6.10
2019-05-06T21:45:33.065Z,6.00
2019-05-06T21:48:03.985Z,6.00
2019-05-06T21:50:33.421Z,5.90
2019-05-06T21:53:03.284Z,6.00
2019-05-06T21:55:32.697Z,5.90
2019-05-06T21:58:02.446Z,6.00
2019-05-06T22:00:49.077Z,6.00
2019-05-06T22:03:18.618Z,6.00
2019-05-06T22:05:48.061Z,6.00
2019-05-06T22:08:17.528Z,6.00
2019-05-06T22:10:47.043Z,6.00
2019-05-06T22:13:16.530Z,6.00
2019-05-06T22:15:45.985Z,6.00
2019-05-06T22:18:15.463Z,5.90
2019-05-06T22:21:02.997Z,5.90
2019-05-06T22:23:49.190Z,5.90
2019-05-06T22:26:19.869Z,6.00
2019-05-06T22:28:49.335Z,5.90
2019-05-06T22:31:18.776Z,5.80
2019-05-06T22:33:49.317Z,5.80
2019-05-06T22:36:18.757Z,5.80
2019-05-06T22:38:48.295Z,5.80
2019-05-06T22:41:17.737Z,5.80
2019-05-06T22:43:47.206Z,5.70
2019-05-06T22:46:18.322Z,5.70
2019-05-06T22:48:47.992Z,5.70
2019-05-06T22:51:17.445Z,5.60
2019-05-06T22:53:46.969Z,5.60
2019-05-06T22:56:16.413Z,5.60
2019-05-06T22:58:45.877Z,5.60
2019-05-06T23:01:32.587Z,5.60
2019-05-06T23:04:02.557Z,5.60
2019-05-06T23:06:32.993Z,5.60
2019-05-06T23:09:02.733Z,5.50
2019-05-06T23:11:33.393Z,5.50
2019-05-06T23:14:02.927Z,5.50
2019-05-06T23:16:34.651Z,5.50
2019-05-06T23:19:03.497Z,5.40
2019-05-06T23:21:33.674Z,5.30
2019-05-06T23:24:04.465Z,5.30
2019-05-06T23:26:33.909Z,5.40
2019-05-06T23:29:03.381Z,5.40
2019-05-06T23:31:33.360Z,5.40
2019-05-06T23:34:04.905Z,5.40
2019-05-06T23:36:59.577Z,5.40
2019-05-06T23:40:08.801Z,5.40
2019-05-06T23:43:14.754Z,5.40
2019-05-06T23:46:22.665Z,5.40
2019-05-06T23:49:28.021Z,5.40
2019-05-06T23:52:33.729Z,5.40
2019-05-06T23:55:39.439Z,5.50
2019-05-06T23:58:08.777Z,5.50
